sensor_id;sensor_type;location;lat;lon;timestamp;pressure;altitude;pressure_sealevel;temperature;humidity
59531;BME280;45349;48.692;8.186;2023-04-30T00:00:11;98956.66;;;10.31;100.00
59531;BME280;45349;48.692;8.186;2023-04-30T00:02:38;98955.13;;;10.38;100.00
59531;BME280;45349;48.692;8.186;2023-04-30T00:05:05;98957.88;;;10.37;100.00
59531;BME280;45349;48.692;8.186;2023-04-30T00:07:31;98948.38;;;10.36;100.00
59531;BME280;45349;48.692;8.186;2023-04-30T00:09:58;98955.00;;;10.30;100.00
59531;BME280;45349;48.692;8.186;2023-04-30T00:12:24;98961.19;;;10.29;100.00
59531;BME280;45349;48.692;8.186;2023-04-30T00:14:51;98963.13;;;10.27;100.00
59531;BME280;45349;48.692;8.186;2023-04-30T00:17:25;98979.44;;;10.29;100.00
59531;BME280;45349;48.692;8.186;2023-04-30T00:19:52;98974.91;;;10.31;100.00
59531;BME280;45349;48.692;8.186;2023-04-30T00:22:24;98972.59;;;10.28;100.00
59531;BME280;45349;48.692;8.186;2023-04-30T00:24:51;98975.31;;;10.26;100.00
59531;BME280;45349;48.692;8.186;2023-04-30T00:27:42;98968.63;;;10.24;100.00
59531;BME280;45349;48.692;8.186;2023-04-30T00:30:10;98956.81;;;10.19;100.00
59531;BME280;45349;48.692;8.186;2023-04-30T00:32:38;98965.72;;;10.17;100.00
59531;BME280;45349;48.692;8.186;2023-04-30T00:35:05;98961.75;;;10.13;100.00
59531;BME280;45349;48.692;8.186;2023-04-30T00:37:32;98956.81;;;10.10;100.00
59531;BME280;45349;48.692;8.186;2023-04-30T00:39:59;98958.34;;;10.02;100.00
59531;BME280;45349;48.692;8.186;2023-04-30T00:42:25;98958.34;;;10.02;100.00
59531;BME280;45349;48.692;8.186;2023-04-30T00:44:52;98949.56;;;9.94;100.00
59531;BME280;45349;48.692;8.186;2023-04-30T00:47:24;98942.16;;;9.89;100.00
59531;BME280;45349;48.692;8.186;2023-04-30T00:49:52;98933.94;;;9.84;100.00
59531;BME280;45349;48.692;8.186;2023-04-30T00:52:25;98940.94;;;9.73;100.00
59531;BME280;45349;48.692;8.186;2023-04-30T00:54:52;98935.72;;;9.64;100.00
59531;BME280;45349;48.692;8.186;2023-04-30T00:57:25;98929.56;;;9.55;100.00
59531;BME280;45349;48.692;8.186;2023-04-30T00:59:52;98936.13;;;9.49;100.00
59531;BME280;45349;48.692;8.186;2023-04-30T01:02:24;98935.03;;;9.42;100.00
59531;BME280;45349;48.692;8.186;2023-04-30T01:04:52;98924.19;;;9.37;100.00
59531;BME280;45349;48.692;8.186;2023-04-30T01:07:24;98923.78;;;9.32;100.00
59531;BME280;45349;48.692;8.186;2023-04-30T01:09:53;98920.47;;;9.29;100.00
59531;BME280;45349;48.692;8.186;2023-04-30T01:12:28;98924.75;;;9.30;100.00
59531;BME280;45349;48.692;8.186;2023-04-30T01:15:03;98918.28;;;9.25;100.00
59531;BME280;45349;48.692;8.186;2023-04-30T01:17:35;98913.63;;;9.28;100.00
59531;BME280;45349;48.692;8.186;2023-04-30T01:20:07;98910.22;;;9.38;100.00
59531;BME280;45349;48.692;8.186;2023-04-30T01:22:45;98906.66;;;9.39;100.00
59531;BME280;45349;48.692;8.186;2023-04-30T01:25:22;98907.06;;;9.44;100.00
59531;BME280;45349;48.692;8.186;2023-04-30T01:28:04;98904.31;;;9.45;100.00
59531;BME280;45349;48.692;8.186;2023-04-30T01:30:32;98898.81;;;9.49;100.00
59531;BME280;45349;48.692;8.186;2023-04-30T01:32:59;98894.03;;;9.54;100.00
59531;BME280;45349;48.692;8.186;2023-04-30T01:35:38;98903.75;;;9.52;100.00
59531;BME280;45349;48.692;8.186;2023-04-30T01:38:14;98897.75;;;9.51;100.00
59531;BME280;45349;48.692;8.186;2023-04-30T01:40:47;98907.84;;;9.54;100.00
59531;BME280;45349;48.692;8.186;2023-04-30T01:43:22;98907.84;;;9.54;100.00
59531;BME280;45349;48.692;8.186;2023-04-30T01:46:00;98905.94;;;9.56;100.00
59531;BME280;45349;48.692;8.186;2023-04-30T01:48:38;98903.34;;;9.56;100.00
59531;BME280;45349;48.692;8.186;2023-04-30T01:51:09;98903.47;;;9.65;100.00
59531;BME280;45349;48.692;8.186;2023-04-30T01:53:44;98913.63;;;9.68;100.00
59531;BME280;45349;48.692;8.186;2023-04-30T01:56:17;98913.63;;;9.78;100.00
59531;BME280;45349;48.692;8.186;2023-04-30T01:58:47;98911.16;;;9.86;100.00
59531;BME280;45349;48.692;8.186;2023-04-30T02:01:28;98905.63;;;9.99;100.00
59531;BME280;45349;48.692;8.186;2023-04-30T02:03:55;98902.63;;;9.94;100.00
59531;BME280;45349;48.692;8.186;2023-04-30T02:06:22;98897.41;;;9.94;100.00
59531;BME280;45349;48.692;8.186;2023-04-30T02:08:52;98903.44;;;10.04;100.00
59531;BME280;45349;48.692;8.186;2023-04-30T02:11:19;98897.25;;;10.05;100.00
59531;BME280;45349;48.692;8.186;2023-04-30T02:13:47;98892.88;;;9.96;100.00
59531;BME280;45349;48.692;8.186;2023-04-30T02:16:14;98898.25;;;9.84;100.00
59531;BME280;45349;48.692;8.186;2023-04-30T02:18:42;98895.81;;;9.63;100.00
59531;BME280;45349;48.692;8.186;2023-04-30T02:21:08;98903.50;;;9.45;100.00
59531;BME280;45349;48.692;8.186;2023-04-30T02:23:35;98905.13;;;9.26;100.00
59531;BME280;45349;48.692;8.186;2023-04-30T02:26:02;98904.13;;;9.08;100.00
59531;BME280;45349;48.692;8.186;2023-04-30T02:28:28;98899.56;;;8.90;100.00
59531;BME280;45349;48.692;8.186;2023-04-30T02:30:57;98902.97;;;8.81;100.00
59531;BME280;45349;48.692;8.186;2023-04-30T02:33:24;98894.81;;;8.64;100.00
59531;BME280;45349;48.692;8.186;2023-04-30T02:35:50;98894.91;;;8.53;100.00
59531;BME280;45349;48.692;8.186;2023-04-30T02:38:19;98894.75;;;8.45;100.00
59531;BME280;45349;48.692;8.186;2023-04-30T02:40:45;98892.78;;;8.37;100.00
59531;BME280;45349;48.692;8.186;2023-04-30T02:43:12;98890.16;;;8.27;100.00
59531;BME280;45349;48.692;8.186;2023-04-30T02:45:38;98898.22;;;8.24;100.00
59531;BME280;45349;48.692;8.186;2023-04-30T02:48:06;98896.66;;;8.21;100.00
59531;BME280;45349;48.692;8.186;2023-04-30T02:50:33;98895.44;;;8.16;100.00
59531;BME280;45349;48.692;8.186;2023-04-30T02:53:00;98894.97;;;8.10;100.00
59531;BME280;45349;48.692;8.186;2023-04-30T02:55:26;98886.75;;;8.05;100.00
59531;BME280;45349;48.692;8.186;2023-04-30T02:57:53;98887.75;;;8.14;100.00
59531;BME280;45349;48.692;8.186;2023-04-30T03:00:20;98895.09;;;8.09;100.00
59531;BME280;45349;48.692;8.186;2023-04-30T03:02:47;98881.81;;;8.02;100.00
59531;BME280;45349;48.692;8.186;2023-04-30T03:05:15;98881.09;;;8.00;100.00
59531;BME280;45349;48.692;8.186;2023-04-30T03:07:41;98871.06;;;7.95;100.00
59531;BME280;45349;48.692;8.186;2023-04-30T03:10:09;98872.56;;;7.88;100.00
59531;BME280;45349;48.692;8.186;2023-04-30T03:12:35;98870.06;;;7.87;100.00
59531;BME280;45349;48.692;8.186;2023-04-30T03:15:03;98874.47;;;7.86;100.00
59531;BME280;45349;48.692;8.186;2023-04-30T03:17:29;98874.72;;;7.83;100.00
59531;BME280;45349;48.692;8.186;2023-04-30T03:19:56;98875.59;;;7.93;100.00
59531;BME280;45349;48.692;8.186;2023-04-30T03:22:25;98878.31;;;7.92;100.00
59531;BME280;45349;48.692;8.186;2023-04-30T03:24:52;98872.16;;;7.93;100.00
59531;BME280;45349;48.692;8.186;2023-04-30T03:27:24;98874.69;;;8.04;100.00
59531;BME280;45349;48.692;8.186;2023-04-30T03:29:50;98868.41;;;8.07;100.00
59531;BME280;45349;48.692;8.186;2023-04-30T03:32:23;98870.06;;;8.08;100.00
59531;BME280;45349;48.692;8.186;2023-04-30T03:34:50;98869.69;;;8.12;100.00
59531;BME280;45349;48.692;8.186;2023-04-30T03:37:43;98865.88;;;8.17;100.00
59531;BME280;45349;48.692;8.186;2023-04-30T03:40:10;98868.06;;;8.21;100.00
59531;BME280;45349;48.692;8.186;2023-04-30T03:42:37;98868.25;;;8.30;100.00
59531;BME280;45349;48.692;8.186;2023-04-30T03:45:04;98860.19;;;8.33;100.00
59531;BME280;45349;48.692;8.186;2023-04-30T03:47:32;98869.53;;;8.35;100.00
59531;BME280;45349;48.692;8.186;2023-04-30T03:49:59;98868.41;;;8.38;100.00
59531;BME280;45349;48.692;8.186;2023-04-30T03:52:26;98855.41;;;8.38;100.00
59531;BME280;45349;48.692;8.186;2023-04-30T03:54:54;98858.97;;;8.37;100.00
59531;BME280;45349;48.692;8.186;2023-04-30T03:57:24;98854.47;;;8.39;100.00
59531;BME280;45349;48.692;8.186;2023-04-30T03:59:51;98866.50;;;8.40;100.00
59531;BME280;45349;48.692;8.186;2023-04-30T04:02:24;98871.44;;;8.43;100.00
59531;BME280;45349;48.692;8.186;2023-04-30T04:04:51;98871.19;;;8.46;100.00
59531;BME280;45349;48.692;8.186;2023-04-30T04:07:24;98874.47;;;8.48;100.00
59531;BME280;45349;48.692;8.186;2023-04-30T04:09:50;98871.19;;;8.46;100.00
59531;BME280;45349;48.692;8.186;2023-04-30T04:12:43;98872.84;;;8.47;100.00
59531;BME280;45349;48.692;8.186;2023-04-30T04:15:09;98875.06;;;8.52;100.00
59531;BME280;45349;48.692;8.186;2023-04-30T04:17:36;98878.34;;;8.54;100.00
59531;BME280;45349;48.692;8.186;2023-04-30T04:20:03;98873.84;;;8.56;100.00
59531;BME280;45349;48.692;8.186;2023-04-30T04:22:33;98877.31;;;8.66;100.00
59531;BME280;45349;48.692;8.186;2023-04-30T04:24:59;98878.00;;;8.68;100.00
59531;BME280;45349;48.692;8.186;2023-04-30T04:27:27;98878.53;;;8.62;100.00
59531;BME280;45349;48.692;8.186;2023-04-30T04:29:55;98878.09;;;8.57;100.00
59531;BME280;45349;48.692;8.186;2023-04-30T04:32:24;98886.84;;;8.56;100.00
59531;BME280;45349;48.692;8.186;2023-04-30T04:34:51;98886.31;;;8.52;100.00
59531;BME280;45349;48.692;8.186;2023-04-30T04:37:24;98894.81;;;8.54;100.00
59531;BME280;45349;48.692;8.186;2023-04-30T04:39:50;98895.28;;;8.48;100.00
59531;BME280;45349;48.692;8.186;2023-04-30T04:42:41;98893.16;;;8.53;100.00
59531;BME280;45349;48.692;8.186;2023-04-30T04:45:10;98887.00;;;8.54;100.00
59531;BME280;45349;48.692;8.186;2023-04-30T04:47:37;98886.47;;;8.61;100.00
59531;BME280;45349;48.692;8.186;2023-04-30T04:50:05;98890.72;;;8.62;100.00
59531;BME280;45349;48.692;8.186;2023-04-30T04:52:32;98889.88;;;8.61;100.00
59531;BME280;45349;48.692;8.186;2023-04-30T04:54:58;98887.16;;;8.63;100.00
59531;BME280;45349;48.692;8.186;2023-04-30T04:57:25;98899.06;;;8.65;100.00
59531;BME280;45349;48.692;8.186;2023-04-30T04:59:52;98892.28;;;8.74;100.00
59531;BME280;45349;48.692;8.186;2023-04-30T05:02:26;98893.50;;;8.80;100.00
59531;BME280;45349;48.692;8.186;2023-04-30T05:04:52;98892.97;;;8.86;100.00
59531;BME280;45349;48.692;8.186;2023-04-30T05:07:23;98894.09;;;8.93;100.00
59531;BME280;45349;48.692;8.186;2023-04-30T05:09:51;98905.88;;;8.97;100.00
59531;BME280;45349;48.692;8.186;2023-04-30T05:12:24;98902.38;;;9.18;98.60
59531;BME280;45349;48.692;8.186;2023-04-30T05:14:50;98903.63;;;9.43;96.30
59531;BME280;45349;48.692;8.186;2023-04-30T05:17:43;98899.66;;;9.49;96.91
59531;BME280;45349;48.692;8.186;2023-04-30T05:20:11;98903.34;;;9.56;94.73
59531;BME280;45349;48.692;8.186;2023-04-30T05:22:37;98908.69;;;9.55;96.61
59531;BME280;45349;48.692;8.186;2023-04-30T05:25:05;98913.75;;;9.56;96.35
59531;BME280;45349;48.692;8.186;2023-04-30T05:27:32;98904.84;;;9.59;94.76
59531;BME280;45349;48.692;8.186;2023-04-30T05:29:58;98913.22;;;9.63;93.95
59531;BME280;45349;48.692;8.186;2023-04-30T05:32:25;98914.84;;;9.64;94.86
59531;BME280;45349;48.692;8.186;2023-04-30T05:34:54;98909.09;;;9.70;93.66
59531;BME280;45349;48.692;8.186;2023-04-30T05:37:24;98912.13;;;9.75;92.84
59531;BME280;45349;48.692;8.186;2023-04-30T05:39:50;98905.25;;;9.74;94.98
59531;BME280;45349;48.692;8.186;2023-04-30T05:42:43;98920.34;;;9.80;92.58
59531;BME280;45349;48.692;8.186;2023-04-30T05:45:11;98917.31;;;9.95;89.04
59531;BME280;45349;48.692;8.186;2023-04-30T05:47:41;98924.44;;;10.02;89.22
59531;BME280;45349;48.692;8.186;2023-04-30T05:50:10;98914.78;;;10.13;88.93
59531;BME280;45349;48.692;8.186;2023-04-30T05:52:37;98916.72;;;10.21;88.15
59531;BME280;45349;48.692;8.186;2023-04-30T05:55:04;98925.47;;;10.29;87.28
59531;BME280;45349;48.692;8.186;2023-04-30T05:57:31;98920.13;;;10.21;91.77
59531;BME280;45349;48.692;8.186;2023-04-30T05:59:57;98922.06;;;10.19;91.62
59531;BME280;45349;48.692;8.186;2023-04-30T06:02:24;98917.81;;;10.28;87.89
59531;BME280;45349;48.692;8.186;2023-04-30T06:04:51;98918.59;;;10.28;89.86
59531;BME280;45349;48.692;8.186;2023-04-30T06:07:25;98919.00;;;10.33;89.41
59531;BME280;45349;48.692;8.186;2023-04-30T06:09:51;98919.56;;;10.37;87.08
59531;BME280;45349;48.692;8.186;2023-04-30T06:12:24;98917.34;;;10.32;90.33
59531;BME280;45349;48.692;8.186;2023-04-30T06:14:51;98922.16;;;10.37;90.58
59531;BME280;45349;48.692;8.186;2023-04-30T06:17:23;98916.78;;;10.39;91.85
59531;BME280;45349;48.692;8.186;2023-04-30T06:19:50;98917.50;;;10.41;90.79
59531;BME280;45349;48.692;8.186;2023-04-30T06:22:43;98914.19;;;10.48;91.85
59531;BME280;45349;48.692;8.186;2023-04-30T06:25:10;98916.63;;;10.60;90.39
59531;BME280;45349;48.692;8.186;2023-04-30T06:27:36;98914.66;;;10.62;92.64
59531;BME280;45349;48.692;8.186;2023-04-30T06:30:04;98912.25;;;11.06;80.96
59531;BME280;45349;48.692;8.186;2023-04-30T06:32:30;98913.78;;;11.27;80.56
59531;BME280;45349;48.692;8.186;2023-04-30T06:34:57;98911.03;;;11.47;80.85
59531;BME280;45349;48.692;8.186;2023-04-30T06:37:24;98911.78;;;11.57;84.04
59531;BME280;45349;48.692;8.186;2023-04-30T06:39:52;98922.22;;;11.75;78.62
59531;BME280;45349;48.692;8.186;2023-04-30T06:42:24;98918.38;;;11.88;76.80
59531;BME280;45349;48.692;8.186;2023-04-30T06:44:51;98915.00;;;11.95;75.70
59531;BME280;45349;48.692;8.186;2023-04-30T06:47:24;98911.84;;;12.10;76.19
59531;BME280;45349;48.692;8.186;2023-04-30T06:49:50;98916.84;;;12.21;77.98
59531;BME280;45349;48.692;8.186;2023-04-30T06:52:21;98922.44;;;12.27;74.61
59531;BME280;45349;48.692;8.186;2023-04-30T06:54:47;98924.06;;;12.28;72.07
59531;BME280;45349;48.692;8.186;2023-04-30T06:57:15;98917.75;;;12.38;71.77
59531;BME280;45349;48.692;8.186;2023-04-30T06:59:42;98917.06;;;12.36;79.34
59531;BME280;45349;48.692;8.186;2023-04-30T07:02:09;98921.91;;;12.49;77.67
59531;BME280;45349;48.692;8.186;2023-04-30T07:04:35;98918.66;;;12.55;75.29
59531;BME280;45349;48.692;8.186;2023-04-30T07:07:02;98923.09;;;12.63;71.15
59531;BME280;45349;48.692;8.186;2023-04-30T07:09:29;98921.19;;;12.74;71.35
59531;BME280;45349;48.692;8.186;2023-04-30T07:11:56;98922.38;;;12.88;70.43
59531;BME280;45349;48.692;8.186;2023-04-30T07:14:24;98908.53;;;13.04;70.16
59531;BME280;45349;48.692;8.186;2023-04-30T07:16:51;98914.63;;;13.21;69.91
59531;BME280;45349;48.692;8.186;2023-04-30T07:19:18;98916.91;;;13.16;67.52
59531;BME280;45349;48.692;8.186;2023-04-30T07:21:44;98921.84;;;13.35;67.97
59531;BME280;45349;48.692;8.186;2023-04-30T07:24:11;98921.84;;;13.35;68.05
59531;BME280;45349;48.692;8.186;2023-04-30T07:26:37;98920.19;;;13.18;66.46
59531;BME280;45349;48.692;8.186;2023-04-30T07:29:04;98920.69;;;13.29;66.44
59531;BME280;45349;48.692;8.186;2023-04-30T07:31:32;98916.63;;;13.35;65.68
59531;BME280;45349;48.692;8.186;2023-04-30T07:33:59;98915.69;;;13.45;68.23
59531;BME280;45349;48.692;8.186;2023-04-30T07:36:25;98916.03;;;13.66;64.58
59531;BME280;45349;48.692;8.186;2023-04-30T07:38:52;98914.06;;;13.60;63.71
59531;BME280;45349;48.692;8.186;2023-04-30T07:41:19;98918.31;;;13.78;65.10
59531;BME280;45349;48.692;8.186;2023-04-30T07:43:46;98913.03;;;13.94;63.12
59531;BME280;45349;48.692;8.186;2023-04-30T07:46:12;98919.94;;;13.95;62.18
59531;BME280;45349;48.692;8.186;2023-04-30T07:48:40;98914.53;;;13.97;61.16
59531;BME280;45349;48.692;8.186;2023-04-30T07:51:07;98905.47;;;14.24;59.67
59531;BME280;45349;48.692;8.186;2023-04-30T07:53:33;98913.78;;;14.44;59.33
59531;BME280;45349;48.692;8.186;2023-04-30T07:56:00;98917.56;;;14.42;59.31
59531;BME280;45349;48.692;8.186;2023-04-30T07:58:26;98922.28;;;14.55;57.42
59531;BME280;45349;48.692;8.186;2023-04-30T08:00:53;98931.19;;;14.94;57.85
59531;BME280;45349;48.692;8.186;2023-04-30T08:03:20;98924.31;;;14.84;53.41
59531;BME280;45349;48.692;8.186;2023-04-30T08:05:48;98922.16;;;14.96;54.62
59531;BME280;45349;48.692;8.186;2023-04-30T08:08:15;98920.66;;;14.94;55.61
59531;BME280;45349;48.692;8.186;2023-04-30T08:10:41;98932.84;;;14.86;54.61
59531;BME280;45349;48.692;8.186;2023-04-30T08:13:08;98934.03;;;15.15;56.33
59531;BME280;45349;48.692;8.186;2023-04-30T08:15:34;98926.69;;;15.34;55.08
59531;BME280;45349;48.692;8.186;2023-04-30T08:18:02;98924.13;;;15.49;53.70
59531;BME280;45349;48.692;8.186;2023-04-30T08:20:29;98935.69;;;15.40;55.47
59531;BME280;45349;48.692;8.186;2023-04-30T08:22:57;98920.69;;;15.25;55.44
59531;BME280;45349;48.692;8.186;2023-04-30T08:25:24;98926.69;;;15.57;54.44
59531;BME280;45349;48.692;8.186;2023-04-30T08:27:50;98929.97;;;15.83;54.21
59531;BME280;45349;48.692;8.186;2023-04-30T08:30:17;98926.69;;;16.04;52.08
59531;BME280;45349;48.692;8.186;2023-04-30T08:32:44;98929.25;;;16.12;51.41
59531;BME280;45349;48.692;8.186;2023-04-30T08:35:10;98923.53;;;16.23;49.16
59531;BME280;45349;48.692;8.186;2023-04-30T08:37:39;98930.31;;;15.79;49.36
59531;BME280;45349;48.692;8.186;2023-04-30T08:40:08;98920.66;;;15.95;48.86
59531;BME280;45349;48.692;8.186;2023-04-30T08:42:40;98929.50;;;15.79;50.04
59531;BME280;45349;48.692;8.186;2023-04-30T08:45:10;98925.84;;;16.03;48.99
59531;BME280;45349;48.692;8.186;2023-04-30T08:47:38;98937.41;;;15.32;49.83
59531;BME280;45349;48.692;8.186;2023-04-30T08:50:06;98931.25;;;15.63;50.77
59531;BME280;45349;48.692;8.186;2023-04-30T08:52:34;98935.69;;;15.86;49.65
59531;BME280;45349;48.692;8.186;2023-04-30T08:55:06;98930.31;;;15.79;52.43
59531;BME280;45349;48.692;8.186;2023-04-30T08:57:34;98934.03;;;16.08;54.14
59531;BME280;45349;48.692;8.186;2023-04-30T09:00:01;98932.78;;;16.19;50.44
59531;BME280;45349;48.692;8.186;2023-04-30T09:02:30;98935.72;;;16.70;50.91
59531;BME280;45349;48.692;8.186;2023-04-30T09:04:57;98936.63;;;17.29;51.31
59531;BME280;45349;48.692;8.186;2023-04-30T09:07:25;98936.94;;;17.84;46.27
59531;BME280;45349;48.692;8.186;2023-04-30T09:09:53;98945.31;;;17.66;47.74
59531;BME280;45349;48.692;8.186;2023-04-30T09:12:24;98948.34;;;17.63;46.42
59531;BME280;45349;48.692;8.186;2023-04-30T09:14:59;98953.91;;;17.96;45.45
59531;BME280;45349;48.692;8.186;2023-04-30T09:17:25;98944.34;;;17.74;45.38
59531;BME280;45349;48.692;8.186;2023-04-30T09:19:52;98947.94;;;17.44;45.41
59531;BME280;45349;48.692;8.186;2023-04-30T09:22:24;98939.16;;;16.55;48.36
59531;BME280;45349;48.692;8.186;2023-04-30T09:24:50;98943.25;;;16.43;47.62
59531;BME280;45349;48.692;8.186;2023-04-30T09:27:43;98947.00;;;16.63;48.53
59531;BME280;45349;48.692;8.186;2023-04-30T09:30:29;98958.34;;;17.46;47.35
59531;BME280;45349;48.692;8.186;2023-04-30T09:32:56;98944.91;;;17.25;46.92
59531;BME280;45349;48.692;8.186;2023-04-30T09:35:28;98947.06;;;17.59;45.25
59531;BME280;45349;48.692;8.186;2023-04-30T09:37:55;98944.56;;;17.72;45.41
59531;BME280;45349;48.692;8.186;2023-04-30T09:40:31;98938.63;;;17.26;46.07
59531;BME280;45349;48.692;8.186;2023-04-30T09:42:59;98939.06;;;17.08;48.45
59531;BME280;45349;48.692;8.186;2023-04-30T09:45:38;98949.50;;;17.17;46.36
59531;BME280;45349;48.692;8.186;2023-04-30T09:48:05;98943.50;;;17.45;45.88
59531;BME280;45349;48.692;8.186;2023-04-30T09:50:36;98942.19;;;17.55;46.45
59531;BME280;45349;48.692;8.186;2023-04-30T09:53:07;98948.13;;;17.06;47.36
59531;BME280;45349;48.692;8.186;2023-04-30T09:55:35;98948.09;;;17.58;47.27
59531;BME280;45349;48.692;8.186;2023-04-30T09:58:04;98948.72;;;17.60;48.79
59531;BME280;45349;48.692;8.186;2023-04-30T10:00:34;98948.94;;;17.43;49.30
59531;BME280;45349;48.692;8.186;2023-04-30T10:03:04;98945.19;;;17.74;47.39
59531;BME280;45349;48.692;8.186;2023-04-30T10:05:33;98940.91;;;17.73;48.26
59531;BME280;45349;48.692;8.186;2023-04-30T10:08:02;98941.56;;;18.25;49.48
59531;BME280;45349;48.692;8.186;2023-04-30T10:10:30;98934.28;;;18.34;44.13
59531;BME280;45349;48.692;8.186;2023-04-30T10:13:03;98942.25;;;18.41;43.63
59531;BME280;45349;48.692;8.186;2023-04-30T10:15:33;98919.50;;;18.11;46.14
59531;BME280;45349;48.692;8.186;2023-04-30T10:18:04;98937.50;;;17.36;48.32
59531;BME280;45349;48.692;8.186;2023-04-30T10:20:34;98933.25;;;17.56;45.74
59531;BME280;45349;48.692;8.186;2023-04-30T10:23:02;98929.53;;;17.51;46.50
59531;BME280;45349;48.692;8.186;2023-04-30T10:25:29;98927.22;;;17.63;46.73
59531;BME280;45349;48.692;8.186;2023-04-30T10:27:55;98920.06;;;16.68;47.59
59531;BME280;45349;48.692;8.186;2023-04-30T10:30:22;98921.09;;;17.19;47.31
59531;BME280;45349;48.692;8.186;2023-04-30T10:32:56;98905.84;;;17.58;46.03
59531;BME280;45349;48.692;8.186;2023-04-30T10:35:29;98908.91;;;17.18;44.59
59531;BME280;45349;48.692;8.186;2023-04-30T10:38:03;98904.69;;;17.89;44.68
59531;BME280;45349;48.692;8.186;2023-04-30T10:40:36;98903.72;;;17.46;45.23
59531;BME280;45349;48.692;8.186;2023-04-30T10:43:03;98903.69;;;16.88;47.46
59531;BME280;45349;48.692;8.186;2023-04-30T10:45:37;98902.78;;;16.95;47.03
59531;BME280;45349;48.692;8.186;2023-04-30T10:48:05;98907.78;;;16.75;47.68
59531;BME280;45349;48.692;8.186;2023-04-30T10:50:38;98900.41;;;17.01;48.99
59531;BME280;45349;48.692;8.186;2023-04-30T10:53:05;98902.56;;;17.77;47.44
59531;BME280;45349;48.692;8.186;2023-04-30T10:55:32;98900.84;;;17.91;45.68
59531;BME280;45349;48.692;8.186;2023-04-30T10:58:22;98895.22;;;17.07;48.23
59531;BME280;45349;48.692;8.186;2023-04-30T11:00:50;98901.09;;;16.43;48.21
59531;BME280;45349;48.692;8.186;2023-04-30T11:03:27;98883.31;;;16.96;48.51
59531;BME280;45349;48.692;8.186;2023-04-30T11:05:55;98884.09;;;17.55;47.08
59531;BME280;45349;48.692;8.186;2023-04-30T11:08:32;98887.63;;;17.63;48.10
59531;BME280;45349;48.692;8.186;2023-04-30T11:11:00;98876.44;;;17.89;44.67
59531;BME280;45349;48.692;8.186;2023-04-30T11:13:27;98876.41;;;17.82;45.58
59531;BME280;45349;48.692;8.186;2023-04-30T11:16:01;98880.09;;;18.17;44.27
59531;BME280;45349;48.692;8.186;2023-04-30T11:18:28;98877.78;;;18.00;44.20
59531;BME280;45349;48.692;8.186;2023-04-30T11:20:57;98885.25;;;17.24;46.07
59531;BME280;45349;48.692;8.186;2023-04-30T11:23:25;98871.28;;;17.31;45.88
59531;BME280;45349;48.692;8.186;2023-04-30T11:25:53;98880.84;;;17.53;45.68
59531;BME280;45349;48.692;8.186;2023-04-30T11:28:23;98882.88;;;18.02;46.04
59531;BME280;45349;48.692;8.186;2023-04-30T11:30:51;98880.03;;;18.94;47.15
59531;BME280;45349;48.692;8.186;2023-04-30T11:33:18;98869.75;;;19.19;46.39
59531;BME280;45349;48.692;8.186;2023-04-30T11:35:46;98881.38;;;19.45;42.79
59531;BME280;45349;48.692;8.186;2023-04-30T11:38:16;98869.97;;;19.38;42.61
59531;BME280;45349;48.692;8.186;2023-04-30T11:40:43;98875.50;;;19.56;44.07
59531;BME280;45349;48.692;8.186;2023-04-30T11:43:20;98877.53;;;18.72;44.41
59531;BME280;45349;48.692;8.186;2023-04-30T11:46:04;98866.41;;;18.06;44.99
59531;BME280;45349;48.692;8.186;2023-04-30T11:48:32;98854.41;;;17.75;46.80
59531;BME280;45349;48.692;8.186;2023-04-30T11:51:02;98862.00;;;17.35;47.14
59531;BME280;45349;48.692;8.186;2023-04-30T11:53:31;98857.34;;;17.37;46.21
59531;BME280;45349;48.692;8.186;2023-04-30T11:56:01;98856.53;;;16.78;48.03
59531;BME280;45349;48.692;8.186;2023-04-30T11:58:32;98856.44;;;16.86;47.51
59531;BME280;45349;48.692;8.186;2023-04-30T12:00:59;98851.56;;;17.05;48.70
59531;BME280;45349;48.692;8.186;2023-04-30T12:03:26;98853.88;;;17.58;47.86
59531;BME280;45349;48.692;8.186;2023-04-30T12:05:53;98856.19;;;17.96;44.88
59531;BME280;45349;48.692;8.186;2023-04-30T12:08:20;98850.72;;;17.98;45.74
59531;BME280;45349;48.692;8.186;2023-04-30T12:10:48;98853.47;;;18.53;44.68
59531;BME280;45349;48.692;8.186;2023-04-30T12:13:14;98846.75;;;18.57;44.89
59531;BME280;45349;48.692;8.186;2023-04-30T12:15:41;98846.03;;;18.28;43.91
59531;BME280;45349;48.692;8.186;2023-04-30T12:18:10;98858.50;;;18.41;43.83
59531;BME280;45349;48.692;8.186;2023-04-30T12:20:38;98841.47;;;18.15;43.89
59531;BME280;45349;48.692;8.186;2023-04-30T12:23:06;98835.50;;;17.71;45.09
59531;BME280;45349;48.692;8.186;2023-04-30T12:25:39;98843.66;;;17.48;45.20
59531;BME280;45349;48.692;8.186;2023-04-30T12:28:08;98848.44;;;18.23;43.93
59531;BME280;45349;48.692;8.186;2023-04-30T12:30:35;98845.66;;;18.32;43.97
59531;BME280;45349;48.692;8.186;2023-04-30T12:33:02;98833.63;;;18.29;43.50
59531;BME280;45349;48.692;8.186;2023-04-30T12:35:30;98845.53;;;18.11;45.21
59531;BME280;45349;48.692;8.186;2023-04-30T12:38:01;98857.47;;;18.36;44.21
59531;BME280;45349;48.692;8.186;2023-04-30T12:40:28;98845.72;;;18.52;43.93
59531;BME280;45349;48.692;8.186;2023-04-30T12:42:59;98857.94;;;19.15;43.13
59531;BME280;45349;48.692;8.186;2023-04-30T12:45:44;98860.56;;;19.01;42.79
59531;BME280;45349;48.692;8.186;2023-04-30T12:48:11;98846.97;;;19.65;41.03
59531;BME280;45349;48.692;8.186;2023-04-30T12:50:38;98850.22;;;19.74;42.66
59531;BME280;45349;48.692;8.186;2023-04-30T12:53:06;98847.25;;;18.74;42.52
59531;BME280;45349;48.692;8.186;2023-04-30T12:55:33;98843.75;;;18.67;41.34
59531;BME280;45349;48.692;8.186;2023-04-30T12:58:05;98836.53;;;18.41;42.21
59531;BME280;45349;48.692;8.186;2023-04-30T13:00:44;98825.25;;;17.90;42.84
59531;BME280;45349;48.692;8.186;2023-04-30T13:03:11;98828.81;;;17.76;43.69
59531;BME280;45349;48.692;8.186;2023-04-30T13:05:38;98821.31;;;17.51;45.14
59531;BME280;45349;48.692;8.186;2023-04-30T13:08:05;98823.13;;;17.72;44.19
59531;BME280;45349;48.692;8.186;2023-04-30T13:10:32;98825.94;;;17.99;44.11